sensor_id;sensor_type;location;lat;lon;timestamp;P1;durP1;ratioP1;P2;durP2;ratioP2
38435;SDS011;24220;48.168;14.024;2023-02-28T00:01:42;5.50;;;4.33;;
38435;SDS011;24220;48.168;14.024;2023-02-28T00:04:29;6.23;;;4.70;;
38435;SDS011;24220;48.168;14.024;2023-02-28T00:13:17;6.43;;;5.03;;
38435;SDS011;24220;48.168;14.024;2023-02-28T00:16:22;6.80;;;4.90;;
38435;SDS011;24220;48.168;14.024;2023-02-28T00:19:00;6.83;;;5.30;;
38435;SDS011;24220;48.168;14.024;2023-02-28T00:21:41;7.37;;;5.13;;
38435;SDS011;24220;48.168;14.024;2023-02-28T00:24:09;7.73;;;6.10;;
38435;SDS011;24220;48.168;14.024;2023-02-28T00:27:20;7.40;;;5.77;;
38435;SDS011;24220;48.168;14.024;2023-02-28T00:30:00;7.53;;;5.67;;
38435;SDS011;24220;48.168;14.024;2023-02-28T00:35:46;9.27;;;6.20;;
38435;SDS011;24220;48.168;14.024;2023-02-28T00:38:16;7.80;;;6.37;;
38435;SDS011;24220;48.168;14.024;2023-02-28T00:40:56;8.03;;;6.63;;
38435;SDS011;24220;48.168;14.024;2023-02-28T00:43:36;8.40;;;6.20;;
38435;SDS011;24220;48.168;14.024;2023-02-28T00:46:16;8.40;;;6.22;;
38435;SDS011;24220;48.168;14.024;2023-02-28T00:48:44;11.17;;;7.13;;
38435;SDS011;24220;48.168;14.024;2023-02-28T00:51:14;9.90;;;6.67;;
38435;SDS011;24220;48.168;14.024;2023-02-28T00:53:45;9.73;;;6.60;;
38435;SDS011;24220;48.168;14.024;2023-02-28T00:56:37;9.30;;;6.60;;
38435;SDS011;24220;48.168;14.024;2023-02-28T00:59:20;10.20;;;6.73;;
38435;SDS011;24220;48.168;14.024;2023-02-28T01:02:01;8.87;;;6.60;;
38435;SDS011;24220;48.168;14.024;2023-02-28T01:04:43;8.70;;;6.30;;
38435;SDS011;24220;48.168;14.024;2023-02-28T01:07:21;9.53;;;6.43;;
38435;SDS011;24220;48.168;14.024;2023-02-28T01:09:54;9.27;;;6.07;;
38435;SDS011;24220;48.168;14.024;2023-02-28T01:12:28;8.47;;;6.37;;
38435;SDS011;24220;48.168;14.024;2023-02-28T01:15:10;8.73;;;7.03;;
38435;SDS011;24220;48.168;14.024;2023-02-28T01:18:09;9.63;;;7.13;;
38435;SDS011;24220;48.168;14.024;2023-02-28T01:21:06;10.63;;;6.83;;
38435;SDS011;24220;48.168;14.024;2023-02-28T01:23:58;7.70;;;6.40;;
38435;SDS011;24220;48.168;14.024;2023-02-28T01:26:42;10.10;;;7.20;;
38435;SDS011;24220;48.168;14.024;2023-02-28T01:31:50;9.07;;;7.03;;
38435;SDS011;24220;48.168;14.024;2023-02-28T01:34:45;8.67;;;7.00;;
38435;SDS011;24220;48.168;14.024;2023-02-28T01:37:46;10.20;;;7.07;;
38435;SDS011;24220;48.168;14.024;2023-02-28T01:40:47;10.30;;;7.07;;
38435;SDS011;24220;48.168;14.024;2023-02-28T01:43:56;9.37;;;7.10;;
38435;SDS011;24220;48.168;14.024;2023-02-28T01:46:39;8.90;;;6.60;;
38435;SDS011;24220;48.168;14.024;2023-02-28T01:49:13;8.07;;;6.60;;
38435;SDS011;24220;48.168;14.024;2023-02-28T01:51:49;9.13;;;7.57;;
38435;SDS011;24220;48.168;14.024;2023-02-28T01:54:25;8.83;;;7.47;;
38435;SDS011;24220;48.168;14.024;2023-02-28T01:57:10;10.93;;;7.87;;
38435;SDS011;24220;48.168;14.024;2023-02-28T01:59:53;9.65;;;7.57;;
38435;SDS011;24220;48.168;14.024;2023-02-28T02:02:34;9.00;;;7.13;;
38435;SDS011;24220;48.168;14.024;2023-02-28T02:05:21;10.87;;;7.57;;
38435;SDS011;24220;48.168;14.024;2023-02-28T02:08:15;10.80;;;8.07;;
38435;SDS011;24220;48.168;14.024;2023-02-28T02:11:07;10.40;;;8.07;;
38435;SDS011;24220;48.168;14.024;2023-02-28T02:14:24;12.37;;;8.43;;
38435;SDS011;24220;48.168;14.024;2023-02-28T02:17:14;11.10;;;8.70;;
38435;SDS011;24220;48.168;14.024;2023-02-28T02:26:46;10.95;;;7.88;;
38435;SDS011;24220;48.168;14.024;2023-02-28T02:36:07;11.07;;;8.77;;
38435;SDS011;24220;48.168;14.024;2023-02-28T02:41:54;12.30;;;9.03;;
38435;SDS011;24220;48.168;14.024;2023-02-28T02:44:49;11.63;;;9.00;;
38435;SDS011;24220;48.168;14.024;2023-02-28T02:47:27;11.33;;;8.20;;
38435;SDS011;24220;48.168;14.024;2023-02-28T02:50:02;13.67;;;9.40;;
38435;SDS011;24220;48.168;14.024;2023-02-28T02:53:09;13.67;;;8.60;;
38435;SDS011;24220;48.168;14.024;2023-02-28T02:56:10;13.27;;;9.40;;
38435;SDS011;24220;48.168;14.024;2023-02-28T02:58:47;12.20;;;8.97;;
38435;SDS011;24220;48.168;14.024;2023-02-28T03:01:26;12.97;;;9.60;;
38435;SDS011;24220;48.168;14.024;2023-02-28T03:04:16;13.03;;;9.60;;
38435;SDS011;24220;48.168;14.024;2023-02-28T03:06:53;12.00;;;8.40;;
38435;SDS011;24220;48.168;14.024;2023-02-28T03:09:35;15.60;;;9.00;;
38435;SDS011;24220;48.168;14.024;2023-02-28T03:12:19;13.87;;;9.30;;
38435;SDS011;24220;48.168;14.024;2023-02-28T03:18:36;12.43;;;8.77;;
38435;SDS011;24220;48.168;14.024;2023-02-28T03:25:06;15.38;;;9.70;;
38435;SDS011;24220;48.168;14.024;2023-02-28T03:30:53;12.73;;;9.57;;
38435;SDS011;24220;48.168;14.024;2023-02-28T03:37:13;12.95;;;9.25;;
38435;SDS011;24220;48.168;14.024;2023-02-28T03:40:45;13.20;;;9.50;;
38435;SDS011;24220;48.168;14.024;2023-02-28T03:43:33;12.97;;;8.77;;
38435;SDS011;24220;48.168;14.024;2023-02-28T03:46:31;12.23;;;9.10;;
38435;SDS011;24220;48.168;14.024;2023-02-28T03:52:31;11.63;;;7.93;;
38435;SDS011;24220;48.168;14.024;2023-02-28T03:55:21;14.03;;;9.53;;
38435;SDS011;24220;48.168;14.024;2023-02-28T03:58:14;12.40;;;9.10;;
38435;SDS011;24220;48.168;14.024;2023-02-28T04:04:21;10.73;;;8.40;;
38435;SDS011;24220;48.168;14.024;2023-02-28T04:07:07;12.02;;;8.65;;
38435;SDS011;24220;48.168;14.024;2023-02-28T04:09:45;11.70;;;8.73;;
38435;SDS011;24220;48.168;14.024;2023-02-28T04:12:20;11.90;;;9.03;;
38435;SDS011;24220;48.168;14.024;2023-02-28T04:14:58;12.97;;;9.10;;
38435;SDS011;24220;48.168;14.024;2023-02-28T04:17:42;13.00;;;8.90;;
38435;SDS011;24220;48.168;14.024;2023-02-28T04:20:24;13.57;;;9.20;;
38435;SDS011;24220;48.168;14.024;2023-02-28T04:23:02;13.20;;;9.13;;
38435;SDS011;24220;48.168;14.024;2023-02-28T04:25:35;12.53;;;8.87;;
38435;SDS011;24220;48.168;14.024;2023-02-28T04:28:10;14.63;;;9.40;;
38435;SDS011;24220;48.168;14.024;2023-02-28T04:30:53;12.23;;;8.53;;
38435;SDS011;24220;48.168;14.024;2023-02-28T04:33:32;13.40;;;8.67;;
38435;SDS011;24220;48.168;14.024;2023-02-28T04:36:07;11.63;;;8.47;;
38435;SDS011;24220;48.168;14.024;2023-02-28T04:38:45;11.10;;;8.60;;
38435;SDS011;24220;48.168;14.024;2023-02-28T04:41:23;11.07;;;8.53;;
38435;SDS011;24220;48.168;14.024;2023-02-28T04:43:59;13.83;;;7.80;;
38435;SDS011;24220;48.168;14.024;2023-02-28T04:46:33;14.67;;;8.87;;
38435;SDS011;24220;48.168;14.024;2023-02-28T04:49:16;12.03;;;8.37;;
38435;SDS011;24220;48.168;14.024;2023-02-28T04:52:01;13.20;;;8.20;;
38435;SDS011;24220;48.168;14.024;2023-02-28T04:54:39;12.57;;;8.27;;
38435;SDS011;24220;48.168;14.024;2023-02-28T04:57:09;10.93;;;7.93;;
38435;SDS011;24220;48.168;14.024;2023-02-28T04:59:59;13.63;;;8.30;;
38435;SDS011;24220;48.168;14.024;2023-02-28T05:02:34;11.77;;;8.50;;
38435;SDS011;24220;48.168;14.024;2023-02-28T05:05:05;12.90;;;8.70;;
38435;SDS011;24220;48.168;14.024;2023-02-28T05:07:33;12.60;;;8.30;;
38435;SDS011;24220;48.168;14.024;2023-02-28T05:10:01;12.33;;;8.97;;
38435;SDS011;24220;48.168;14.024;2023-02-28T05:12:31;11.63;;;8.67;;
38435;SDS011;24220;48.168;14.024;2023-02-28T05:14:58;12.57;;;8.40;;
38435;SDS011;24220;48.168;14.024;2023-02-28T05:17:28;13.43;;;9.47;;
38435;SDS011;24220;48.168;14.024;2023-02-28T05:19:55;14.53;;;9.03;;
38435;SDS011;24220;48.168;14.024;2023-02-28T05:22:39;12.77;;;9.00;;
38435;SDS011;24220;48.168;14.024;2023-02-28T05:25:08;13.70;;;9.00;;
38435;SDS011;24220;48.168;14.024;2023-02-28T05:27:42;14.07;;;9.10;;
38435;SDS011;24220;48.168;14.024;2023-02-28T05:30:12;14.00;;;9.17;;
38435;SDS011;24220;48.168;14.024;2023-02-28T05:32:44;12.13;;;8.50;;
38435;SDS011;24220;48.168;14.024;2023-02-28T05:35:19;12.63;;;9.50;;
38435;SDS011;24220;48.168;14.024;2023-02-28T05:37:47;11.67;;;8.73;;
38435;SDS011;24220;48.168;14.024;2023-02-28T05:40:14;12.03;;;8.63;;
38435;SDS011;24220;48.168;14.024;2023-02-28T05:42:47;16.83;;;9.30;;
38435;SDS011;24220;48.168;14.024;2023-02-28T05:45:16;13.63;;;9.43;;
38435;SDS011;24220;48.168;14.024;2023-02-28T05:47:44;14.27;;;9.90;;
38435;SDS011;24220;48.168;14.024;2023-02-28T05:50:18;16.13;;;9.33;;
38435;SDS011;24220;48.168;14.024;2023-02-28T05:52:53;13.80;;;9.33;;
38435;SDS011;24220;48.168;14.024;2023-02-28T05:55:24;13.23;;;9.80;;
38435;SDS011;24220;48.168;14.024;2023-02-28T05:57:51;17.87;;;10.33;;
38435;SDS011;24220;48.168;14.024;2023-02-28T06:00:19;17.23;;;11.27;;
38435;SDS011;24220;48.168;14.024;2023-02-28T06:03:03;15.13;;;9.80;;
38435;SDS011;24220;48.168;14.024;2023-02-28T06:05:31;15.03;;;10.00;;
38435;SDS011;24220;48.168;14.024;2023-02-28T06:08:00;14.23;;;10.37;;
38435;SDS011;24220;48.168;14.024;2023-02-28T06:10:31;15.65;;;10.32;;
38435;SDS011;24220;48.168;14.024;2023-02-28T06:13:02;15.27;;;9.83;;
38435;SDS011;24220;48.168;14.024;2023-02-28T06:15:31;14.87;;;10.77;;
38435;SDS011;24220;48.168;14.024;2023-02-28T06:18:02;15.63;;;9.70;;
38435;SDS011;24220;48.168;14.024;2023-02-28T06:20:31;15.20;;;10.37;;
38435;SDS011;24220;48.168;14.024;2023-02-28T06:23:05;16.67;;;10.70;;
38435;SDS011;24220;48.168;14.024;2023-02-28T06:25:34;16.23;;;10.77;;
38435;SDS011;24220;48.168;14.024;2023-02-28T06:28:02;16.73;;;10.17;;
38435;SDS011;24220;48.168;14.024;2023-02-28T06:30:30;13.37;;;10.30;;
38435;SDS011;24220;48.168;14.024;2023-02-28T06:33:03;15.50;;;10.07;;
38435;SDS011;24220;48.168;14.024;2023-02-28T06:35:59;17.60;;;10.03;;
38435;SDS011;24220;48.168;14.024;2023-02-28T06:38:32;15.63;;;10.73;;
38435;SDS011;24220;48.168;14.024;2023-02-28T06:41:02;15.13;;;10.00;;
38435;SDS011;24220;48.168;14.024;2023-02-28T06:43:40;17.60;;;10.93;;
38435;SDS011;24220;48.168;14.024;2023-02-28T06:46:13;14.97;;;9.47;;
38435;SDS011;24220;48.168;14.024;2023-02-28T06:51:17;14.77;;;10.23;;
38435;SDS011;24220;48.168;14.024;2023-02-28T06:53:54;13.93;;;10.07;;
38435;SDS011;24220;48.168;14.024;2023-02-28T06:56:22;14.63;;;10.17;;
38435;SDS011;24220;48.168;14.024;2023-02-28T06:58:50;16.07;;;10.83;;
38435;SDS011;24220;48.168;14.024;2023-02-28T07:01:19;14.07;;;9.87;;
38435;SDS011;24220;48.168;14.024;2023-02-28T07:03:49;15.90;;;10.27;;
38435;SDS011;24220;48.168;14.024;2023-02-28T07:08:59;19.13;;;11.23;;
38435;SDS011;24220;48.168;14.024;2023-02-28T07:11:27;13.77;;;10.23;;
38435;SDS011;24220;48.168;14.024;2023-02-28T07:14:02;14.47;;;9.97;;
38435;SDS011;24220;48.168;14.024;2023-02-28T07:16:30;14.77;;;10.23;;
38435;SDS011;24220;48.168;14.024;2023-02-28T07:18:58;15.20;;;10.40;;
38435;SDS011;24220;48.168;14.024;2023-02-28T07:21:33;13.13;;;9.73;;
38435;SDS011;24220;48.168;14.024;2023-02-28T07:24:06;21.57;;;11.73;;
38435;SDS011;24220;48.168;14.024;2023-02-28T07:26:39;15.87;;;10.87;;
38435;SDS011;24220;48.168;14.024;2023-02-28T07:29:24;18.73;;;11.13;;
38435;SDS011;24220;48.168;14.024;2023-02-28T07:32:05;14.93;;;9.90;;
38435;SDS011;24220;48.168;14.024;2023-02-28T07:34:49;14.83;;;10.00;;
38435;SDS011;24220;48.168;14.024;2023-02-28T07:37:21;15.97;;;10.30;;
38435;SDS011;24220;48.168;14.024;2023-02-28T07:40:14;16.37;;;10.47;;
38435;SDS011;24220;48.168;14.024;2023-02-28T07:43:08;15.53;;;10.23;;
38435;SDS011;24220;48.168;14.024;2023-02-28T07:45:56;15.73;;;9.97;;
38435;SDS011;24220;48.168;14.024;2023-02-28T07:49:06;17.33;;;10.87;;
38435;SDS011;24220;48.168;14.024;2023-02-28T07:51:56;15.63;;;10.90;;
38435;SDS011;24220;48.168;14.024;2023-02-28T07:54:26;14.40;;;10.47;;
38435;SDS011;24220;48.168;14.024;2023-02-28T07:56:56;16.37;;;10.73;;
38435;SDS011;24220;48.168;14.024;2023-02-28T07:59:44;16.10;;;10.52;;
38435;SDS011;24220;48.168;14.024;2023-02-28T08:02:21;13.93;;;10.80;;
38435;SDS011;24220;48.168;14.024;2023-02-28T08:05:13;15.87;;;10.63;;
38435;SDS011;24220;48.168;14.024;2023-02-28T08:07:42;13.13;;;10.30;;
38435;SDS011;24220;48.168;14.024;2023-02-28T08:10:14;16.37;;;10.63;;
38435;SDS011;24220;48.168;14.024;2023-02-28T08:12:50;12.50;;;9.57;;
38435;SDS011;24220;48.168;14.024;2023-02-28T08:15:19;13.37;;;10.00;;
38435;SDS011;24220;48.168;14.024;2023-02-28T08:18:00;17.23;;;11.13;;
38435;SDS011;24220;48.168;14.024;2023-02-28T08:20:36;12.43;;;9.63;;
38435;SDS011;24220;48.168;14.024;2023-02-28T08:23:25;14.27;;;10.33;;
38435;SDS011;24220;48.168;14.024;2023-02-28T08:25:57;17.67;;;11.20;;
38435;SDS011;24220;48.168;14.024;2023-02-28T08:28:39;15.00;;;10.77;;
38435;SDS011;24220;48.168;14.024;2023-02-28T08:31:16;14.10;;;9.93;;
38435;SDS011;24220;48.168;14.024;2023-02-28T08:33:50;16.27;;;10.00;;
38435;SDS011;24220;48.168;14.024;2023-02-28T08:36:32;13.77;;;10.33;;
38435;SDS011;24220;48.168;14.024;2023-02-28T08:39:19;15.93;;;10.73;;
38435;SDS011;24220;48.168;14.024;2023-02-28T08:42:10;12.23;;;9.60;;
38435;SDS011;24220;48.168;14.024;2023-02-28T08:44:49;14.97;;;10.63;;
38435;SDS011;24220;48.168;14.024;2023-02-28T08:47:37;16.90;;;10.67;;
38435;SDS011;24220;48.168;14.024;2023-02-28T08:50:11;14.90;;;10.23;;
38435;SDS011;24220;48.168;14.024;2023-02-28T08:52:58;12.37;;;9.87;;
38435;SDS011;24220;48.168;14.024;2023-02-28T08:55:40;14.40;;;9.82;;
38435;SDS011;24220;48.168;14.024;2023-02-28T08:58:13;13.90;;;10.38;;
38435;SDS011;24220;48.168;14.024;2023-02-28T09:00:43;15.75;;;10.52;;
38435;SDS011;24220;48.168;14.024;2023-02-28T09:03:26;14.07;;;10.30;;
38435;SDS011;24220;48.168;14.024;2023-02-28T09:05:59;14.45;;;10.15;;
38435;SDS011;24220;48.168;14.024;2023-02-28T09:08:37;16.55;;;11.25;;
38435;SDS011;24220;48.168;14.024;2023-02-28T09:11:13;15.65;;;10.23;;
38435;SDS011;24220;48.168;14.024;2023-02-28T09:14:03;13.82;;;10.57;;
38435;SDS011;24220;48.168;14.024;2023-02-28T09:16:49;16.30;;;10.33;;
38435;SDS011;24220;48.168;14.024;2023-02-28T09:19:35;12.52;;;9.55;;
38435;SDS011;24220;48.168;14.024;2023-02-28T09:22:28;13.00;;;10.07;;
38435;SDS011;24220;48.168;14.024;2023-02-28T09:25:37;14.38;;;10.23;;
38435;SDS011;24220;48.168;14.024;2023-02-28T09:28:39;13.73;;;9.68;;
38435;SDS011;24220;48.168;14.024;2023-02-28T09:31:23;16.10;;;9.88;;
38435;SDS011;24220;48.168;14.024;2023-02-28T09:37:37;14.32;;;10.88;;
38435;SDS011;24220;48.168;14.024;2023-02-28T09:40:09;13.60;;;9.95;;
38435;SDS011;24220;48.168;14.024;2023-02-28T09:42:58;11.60;;;9.35;;
38435;SDS011;24220;48.168;14.024;2023-02-28T09:45:51;12.65;;;9.73;;
38435;SDS011;24220;48.168;14.024;2023-02-28T09:48:47;14.65;;;10.02;;
38435;SDS011;24220;48.168;14.024;2023-02-28T09:51:50;13.25;;;9.90;;
38435;SDS011;24220;48.168;14.024;2023-02-28T09:54:55;13.90;;;10.65;;
38435;SDS011;24220;48.168;14.024;2023-02-28T09:58:09;14.70;;;9.98;;
38435;SDS011;24220;48.168;14.024;2023-02-28T10:01:10;14.52;;;10.20;;
38435;SDS011;24220;48.168;14.024;2023-02-28T10:10:07;13.52;;;9.82;;
38435;SDS011;24220;48.168;14.024;2023-02-28T10:13:04;11.73;;;9.48;;
38435;SDS011;24220;48.168;14.024;2023-02-28T10:16:39;14.77;;;9.98;;
38435;SDS011;24220;48.168;14.024;2023-02-28T10:23:02;12.82;;;10.02;;
38435;SDS011;24220;48.168;14.024;2023-02-28T10:26:09;14.80;;;9.93;;
38435;SDS011;24220;48.168;14.024;2023-02-28T10:28:56;13.30;;;10.15;;
38435;SDS011;24220;48.168;14.024;2023-02-28T10:31:33;13.88;;;10.43;;
38435;SDS011;24220;48.168;14.024;2023-02-28T10:34:46;13.77;;;10.13;;
38435;SDS011;24220;48.168;14.024;2023-02-28T10:37:25;12.32;;;9.80;;
38435;SDS011;24220;48.168;14.024;2023-02-28T10:49:12;13.02;;;10.45;;
38435;SDS011;24220;48.168;14.024;2023-02-28T10:51:58;13.50;;;10.32;;
38435;SDS011;24220;48.168;14.024;2023-02-28T10:54:38;15.18;;;10.43;;
38435;SDS011;24220;48.168;14.024;2023-02-28T10:57:22;12.85;;;9.18;;
38435;SDS011;24220;48.168;14.024;2023-02-28T11:06:41;12.93;;;9.40;;
38435;SDS011;24220;48.168;14.024;2023-02-28T11:15:41;11.93;;;9.73;;
38435;SDS011;24220;48.168;14.024;2023-02-28T11:21:04;12.18;;;8.68;;
38435;SDS011;24220;48.168;14.024;2023-02-28T11:23:36;10.45;;;8.68;;
38435;SDS011;24220;48.168;14.024;2023-02-28T11:26:07;10.15;;;8.45;;
38435;SDS011;24220;48.168;14.024;2023-02-28T11:28:39;12.02;;;9.07;;
38435;SDS011;24220;48.168;14.024;2023-02-28T11:31:25;12.10;;;9.05;;
38435;SDS011;24220;48.168;14.024;2023-02-28T11:33:59;13.63;;;9.70;;
38435;SDS011;24220;48.168;14.024;2023-02-28T11:36:29;10.93;;;8.77;;
38435;SDS011;24220;48.168;14.024;2023-02-28T11:39:04;10.15;;;8.73;;
38435;SDS011;24220;48.168;14.024;2023-02-28T11:51:05;13.82;;;9.88;;
38435;SDS011;24220;48.168;14.024;2023-02-28T11:56:43;10.95;;;8.55;;
38435;SDS011;24220;48.168;14.024;2023-02-28T12:02:38;10.55;;;9.45;;
38435;SDS011;24220;48.168;14.024;2023-02-28T12:06:13;13.82;;;9.18;;
38435;SDS011;24220;48.168;14.024;2023-02-28T12:11:40;10.93;;;9.03;;
38435;SDS011;24220;48.168;14.024;2023-02-28T12:28:43;14.75;;;9.68;;
38435;SDS011;24220;48.168;14.024;2023-02-28T12:31:53;11.32;;;8.70;;
38435;SDS011;24220;48.168;14.024;2023-02-28T12:38:14;12.13;;;9.05;;
38435;SDS011;24220;48.168;14.024;2023-02-28T12:41:12;10.88;;;9.32;;
38435;SDS011;24220;48.168;14.024;2023-02-28T12:44:01;10.23;;;9.05;;
38435;SDS011;24220;48.168;14.024;2023-02-28T12:46:45;11.38;;;9.35;;
38435;SDS011;24220;48.168;14.024;2023-02-28T12:49:37;10.90;;;9.68;;
38435;SDS011;24220;48.168;14.024;2023-02-28T12:52:17;13.25;;;9.07;;
38435;SDS011;24220;48.168;14.024;2023-02-28T12:54:56;12.40;;;9.43;;
38435;SDS011;24220;48.168;14.024;2023-02-28T13:00:18;11.95;;;9.52;;
38435;SDS011;24220;48.168;14.024;2023-02-28T13:09:36;12.45;;;9.82;;
38435;SDS011;24220;48.168;14.024;2023-02-28T13:12:17;12.23;;;10.13;;
38435;SDS011;24220;48.168;14.024;2023-02-28T13:14:47;13.10;;;9.85;;
38435;SDS011;24220;48.168;14.024;2023-02-28T13:20:33;11.88;;;9.48;;
38435;SDS011;24220;48.168;14.024;2023-02-28T13:23:02;11.68;;;9.60;;
38435;SDS011;24220;48.168;14.024;2023-02-28T13:28:09;13.13;;;9.65;;
38435;SDS011;24220;48.168;14.024;2023-02-28T13:38:49;12.68;;;9.43;;
38435;SDS011;24220;48.168;14.024;2023-02-28T13:44:10;12.38;;;9.02;;
38435;SDS011;24220;48.168;14.024;2023-02-28T13:49:33;11.77;;;9.43;;
38435;SDS011;24220;48.168;14.024;2023-02-28T14:00:20;12.50;;;10.30;;
38435;SDS011;24220;48.168;14.024;2023-02-28T14:06:08;13.60;;;10.35;;
38435;SDS011;24220;48.168;14.024;2023-02-28T14:08:51;13.95;;;10.30;;
38435;SDS011;24220;48.168;14.024;2023-02-28T14:11:30;11.43;;;9.45;;
38435;SDS011;24220;48.168;14.024;2023-02-28T14:14:02;13.00;;;9.98;;
38435;SDS011;24220;48.168;14.024;2023-02-28T14:16:45;11.02;;;9.57;;
38435;SDS011;24220;48.168;14.024;2023-02-28T14:19:25;11.15;;;10.00;;
38435;SDS011;24220;48.168;14.024;2023-02-28T14:28:04;11.80;;;9.65;;
38435;SDS011;24220;48.168;14.024;2023-02-28T14:41:54;11.82;;;9.57;;
38435;SDS011;24220;48.168;14.024;2023-02-28T14:44:27;12.45;;;10.00;;
38435;SDS011;24220;48.168;14.024;2023-02-28T14:46:58;11.23;;;9.85;;
38435;SDS011;24220;48.168;14.024;2023-02-28T14:49:36;13.77;;;9.77;;
38435;SDS011;24220;48.168;14.024;2023-02-28T14:52:23;13.47;;;9.80;;
38435;SDS011;24220;48.168;14.024;2023-02-28T14:54:58;13.82;;;10.57;;
38435;SDS011;24220;48.168;14.024;2023-02-28T14:57:28;11.60;;;10.07;;
38435;SDS011;24220;48.168;14.024;2023-02-28T15:00:23;14.25;;;11.10;;
38435;SDS011;24220;48.168;14.024;2023-02-28T15:02:50;12.88;;;10.35;;
38435;SDS011;24220;48.168;14.024;2023-02-28T15:05:22;13.00;;;10.85;;
38435;SDS011;24220;48.168;14.024;2023-02-28T15:08:00;15.48;;;10.82;;
38435;SDS011;24220;48.168;14.024;2023-02-28T15:10:34;14.20;;;11.25;;
38435;SDS011;24220;48.168;14.024;2023-02-28T15:13:07;15.48;;;11.55;;
38435;SDS011;24220;48.168;14.024;2023-02-28T15:21:15;13.68;;;11.07;;
38435;SDS011;24220;48.168;14.024;2023-02-28T15:23:46;14.18;;;11.25;;
38435;SDS011;24220;48.168;14.024;2023-02-28T15:26:25;13.40;;;10.90;;
38435;SDS011;24220;48.168;14.024;2023-02-28T15:29:01;16.35;;;11.60;;
38435;SDS011;24220;48.168;14.024;2023-02-28T15:31:39;14.55;;;11.63;;
38435;SDS011;24220;48.168;14.024;2023-02-28T15:34:26;13.93;;;10.80;;
38435;SDS011;24220;48.168;14.024;2023-02-28T15:40:24;14.07;;;11.68;;
38435;SDS011;24220;48.168;14.024;2023-02-28T15:48:22;16.50;;;12.05;;
38435;SDS011;24220;48.168;14.024;2023-02-28T15:50:54;14.95;;;11.82;;
38435;SDS011;24220;48.168;14.024;2023-02-28T15:53:39;14.57;;;11.25;;
38435;SDS011;24220;48.168;14.024;2023-02-28T15:56:20;14.85;;;12.10;;
38435;SDS011;24220;48.168;14.024;2023-02-28T15:58:55;17.48;;;12.63;;
38435;SDS011;24220;48.168;14.024;2023-02-28T16:01:37;16.95;;;12.20;;
38435;SDS011;24220;48.168;14.024;2023-02-28T16:04:15;17.85;;;12.68;;
38435;SDS011;24220;48.168;14.024;2023-02-28T16:09:27;13.75;;;11.73;;
38435;SDS011;24220;48.168;14.024;2023-02-28T16:11:56;18.33;;;13.02;;
38435;SDS011;24220;48.168;14.024;2023-02-28T16:14:33;16.70;;;12.77;;
38435;SDS011;24220;48.168;14.024;2023-02-28T16:17:07;16.30;;;12.63;;
38435;SDS011;24220;48.168;14.024;2023-02-28T16:19:48;16.85;;;13.50;;
38435;SDS011;24220;48.168;14.024;2023-02-28T16:22:16;17.65;;;12.57;;
38435;SDS011;24220;48.168;14.024;2023-02-28T16:24:51;16.42;;;13.27;;
38435;SDS011;24220;48.168;14.024;2023-02-28T16:27:37;16.85;;;13.10;;
38435;SDS011;24220;48.168;14.024;2023-02-28T16:30:05;15.32;;;12.25;;
38435;SDS011;24220;48.168;14.024;2023-02-28T16:32:38;15.85;;;13.15;;
38435;SDS011;24220;48.168;14.024;2023-02-28T16:35:05;14.90;;;12.43;;
38435;SDS011;24220;48.168;14.024;2023-02-28T16:37:44;15.90;;;12.80;;
38435;SDS011;24220;48.168;14.024;2023-02-28T16:40:19;16.67;;;13.07;;
38435;SDS011;24220;48.168;14.024;2023-02-28T16:42:55;17.35;;;12.25;;
38435;SDS011;24220;48.168;14.024;2023-02-28T16:45:26;15.15;;;12.20;;
38435;SDS011;24220;48.168;14.024;2023-02-28T16:47:55;14.35;;;12.38;;
38435;SDS011;24220;48.168;14.024;2023-02-28T16:50:31;16.50;;;13.38;;
38435;SDS011;24220;48.168;14.024;2023-02-28T16:53:01;17.88;;;13.32;;
38435;SDS011;24220;48.168;14.024;2023-02-28T16:55:28;17.92;;;13.25;;
38435;SDS011;24220;48.168;14.024;2023-02-28T16:57:57;15.65;;;12.60;;
38435;SDS011;24220;48.168;14.024;2023-02-28T17:00:28;17.35;;;12.43;;
38435;SDS011;24220;48.168;14.024;2023-02-28T17:03:02;16.30;;;13.05;;
38435;SDS011;24220;48.168;14.024;2023-02-28T17:05:34;18.17;;;13.27;;
38435;SDS011;24220;48.168;14.024;2023-02-28T17:08:05;16.15;;;12.95;;
38435;SDS011;24220;48.168;14.024;2023-02-28T17:10:35;18.05;;;13.48;;
38435;SDS011;24220;48.168;14.024;2023-02-28T17:13:02;17.23;;;14.48;;
38435;SDS011;24220;48.168;14.024;2023-02-28T17:15:46;17.83;;;13.07;;
38435;SDS011;24220;48.168;14.024;2023-02-28T17:18:20;18.02;;;13.88;;
38435;SDS011;24220;48.168;14.024;2023-02-28T17:20:54;17.60;;;13.35;;
38435;SDS011;24220;48.168;14.024;2023-02-28T17:23:25;15.93;;;12.70;;
38435;SDS011;24220;48.168;14.024;2023-02-28T17:25:57;15.23;;;12.52;;
38435;SDS011;24220;48.168;14.024;2023-02-28T17:28:24;19.05;;;13.48;;
38435;SDS011;24220;48.168;14.024;2023-02-28T17:30:51;16.35;;;12.80;;
38435;SDS011;24220;48.168;14.024;2023-02-28T17:33:21;16.27;;;12.55;;
38435;SDS011;24220;48.168;14.024;2023-02-28T17:35:51;15.95;;;12.73;;
38435;SDS011;24220;48.168;14.024;2023-02-28T17:38:42;16.73;;;12.85;;
38435;SDS011;24220;48.168;14.024;2023-02-28T17:41:14;15.25;;;12.52;;
38435;SDS011;24220;48.168;14.024;2023-02-28T17:46:20;13.93;;;11.75;;
38435;SDS011;24220;48.168;14.024;2023-02-28T17:48:50;17.95;;;12.68;;
38435;SDS011;24220;48.168;14.024;2023-02-28T17:51:21;17.90;;;12.70;;
38435;SDS011;24220;48.168;14.024;2023-02-28T17:53:50;17.33;;;13.40;;
38435;SDS011;24220;48.168;14.024;2023-02-28T17:56:21;16.73;;;12.93;;
38435;SDS011;24220;48.168;14.024;2023-02-28T17:58:51;16.05;;;13.07;;
38435;SDS011;24220;48.168;14.024;2023-02-28T18:01:20;15.35;;;12.32;;
38435;SDS011;24220;48.168;14.024;2023-02-28T18:03:55;15.18;;;12.95;;
38435;SDS011;24220;48.168;14.024;2023-02-28T18:06:36;17.98;;;12.57;;
38435;SDS011;24220;48.168;14.024;2023-02-28T18:09:20;16.67;;;12.68;;
38435;SDS011;24220;48.168;14.024;2023-02-28T18:11:52;17.50;;;12.60;;
38435;SDS011;24220;48.168;14.024;2023-02-28T18:14:23;16.35;;;12.98;;
38435;SDS011;24220;48.168;14.024;2023-02-28T18:16:54;18.67;;;12.88;;
38435;SDS011;24220;48.168;14.024;2023-02-28T18:19:26;15.80;;;12.30;;
38435;SDS011;24220;48.168;14.024;2023-02-28T18:21:56;15.75;;;12.05;;
38435;SDS011;24220;48.168;14.024;2023-02-28T18:24:26;15.32;;;12.68;;
38435;SDS011;24220;48.168;14.024;2023-02-28T18:26:54;15.02;;;12.05;;
38435;SDS011;24220;48.168;14.024;2023-02-28T18:29:24;16.42;;;12.63;;
38435;SDS011;24220;48.168;14.024;2023-02-28T18:31:55;17.20;;;12.85;;
38435;SDS011;24220;48.168;14.024;2023-02-28T18:34:23;16.27;;;13.05;;
38435;SDS011;24220;48.168;14.024;2023-02-28T18:36:51;16.52;;;13.57;;
38435;SDS011;24220;48.168;14.024;2023-02-28T18:39:19;16.42;;;13.02;;
38435;SDS011;24220;48.168;14.024;2023-02-28T18:41:47;17.00;;;12.60;;
38435;SDS011;24220;48.168;14.024;2023-02-28T18:44:20;16.83;;;13.57;;
38435;SDS011;24220;48.168;14.024;2023-02-28T18:46:49;15.45;;;13.10;;
38435;SDS011;24220;48.168;14.024;2023-02-28T18:49:19;17.30;;;13.00;;
38435;SDS011;24220;48.168;14.024;2023-02-28T18:51:51;17.50;;;13.93;;